Collegeville, MN

11:21 PM CDT on April 30, 2017 (GMT -0500)
Sauk Centre | | Change Station

Elev 1243 ft 45.71 °N, 94.93 °W | Updated 10 minutes ago

Snow
Snow
41 °F
Feels Like 36 °F
N
8
Wind Variable Wind from NE

Today
High -- | Low -- °F
--% Chance of Precip.
Yesterday
High -- | Low -- °F
Precip. -- in
Pressure 29.78 in
Visibility 10.0 miles
Clouds Mostly Cloudy 4600 ft
Mostly Cloudy 5000 ft
Overcast 6500 ft
Windchill 36 °F
Dew Point 22 °F
Humidity 48%
Rainfall 0.00 in
Snow Depth Not available.
6:06 AM 8:23 PM
Waxing Crescent, 29% visible
METAR KD39 010411Z AUTO 04007KT 10SM BKN046 BKN050 OVC065 05/M05 A2978 RMK AO2 T00501053
Pressure 29.78 in
Visibility 10.0 miles
Clouds Mostly Cloudy 4600 ft
Mostly Cloudy 5000 ft
Overcast 6500 ft
Windchill 36 °F
Dew Point 22 °F
Humidity 48%
Rainfall 0.00 in
Snow Depth Not available.
6:06 AM 8:23 PM
Waxing Crescent, 29% visible
METAR KD39 010411Z AUTO 04007KT 10SM BKN046 BKN050 OVC065 05/M05 A2978 RMK AO2 T00501053

Get Severe Weather Alerts

Thanks for signing up!

Be on the lookout for a verification email in your inbox.

You'll start receiving the daily forecast at 8 AM.

×

10-Day Weather Forecast

Almanac

Astronomy

Apr. 30, 2017 Rise Set
Actual Time
Civil Twilight
Nautical Twilight
Astronomical Twilight
Moon
Length of Visible Light
Length of Day
Tomorrow will be .
, % of the Moon is Illuminated

Today's Extremes

State Highs State Lows

Community

WunderPhotos

WunderBlog® & News

Nearby

Air Quality

  Air Quality AQ Index Pollutant
Not available.

Snow Depth

Station Depth Elevation

Earthquake Activity

City Distance Mag. Time & Date
Minimum magnitude displayed is 2.5.

Coastal Water Temperatures

Place Temperature

Stations

Nearby Weather Stations

Station Location Temp. Windchill Dew Point Humidity Wind Precip. Elev Updated Type
                   

Watches & Warnings

There are currently no watches in effect.